sensor_id;sensor_type;location;lat;lon;timestamp;P1;durP1;ratioP1;P2;durP2;ratioP2
43014;SDS011;28637;50.554;7.032;2023-02-28T00:03:35;3.17;;;2.20;;
43014;SDS011;28637;50.554;7.032;2023-02-28T00:08:36;3.42;;;1.92;;
43014;SDS011;28637;50.554;7.032;2023-02-28T00:13:38;2.97;;;2.05;;
43014;SDS011;28637;50.554;7.032;2023-02-28T00:18:41;6.32;;;2.10;;
43014;SDS011;28637;50.554;7.032;2023-02-28T00:23:42;4.13;;;2.23;;
43014;SDS011;28637;50.554;7.032;2023-02-28T00:28:43;6.22;;;2.25;;
43014;SDS011;28637;50.554;7.032;2023-02-28T00:33:44;5.23;;;2.10;;
43014;SDS011;28637;50.554;7.032;2023-02-28T00:38:45;3.77;;;2.10;;
43014;SDS011;28637;50.554;7.032;2023-02-28T00:43:46;4.43;;;2.20;;
43014;SDS011;28637;50.554;7.032;2023-02-28T00:48:46;3.67;;;2.00;;
43014;SDS011;28637;50.554;7.032;2023-02-28T00:53:47;2.87;;;1.80;;
43014;SDS011;28637;50.554;7.032;2023-02-28T00:58:48;3.88;;;2.17;;
43014;SDS011;28637;50.554;7.032;2023-02-28T01:03:48;3.33;;;1.90;;
43014;SDS011;28637;50.554;7.032;2023-02-28T01:08:49;3.90;;;2.00;;
43014;SDS011;28637;50.554;7.032;2023-02-28T01:13:50;2.50;;;1.90;;
43014;SDS011;28637;50.554;7.032;2023-02-28T01:18:51;4.47;;;2.00;;
43014;SDS011;28637;50.554;7.032;2023-02-28T01:23:52;2.40;;;1.87;;
43014;SDS011;28637;50.554;7.032;2023-02-28T01:28:56;3.30;;;1.90;;
43014;SDS011;28637;50.554;7.032;2023-02-28T01:33:57;2.50;;;1.83;;
43014;SDS011;28637;50.554;7.032;2023-02-28T01:38:57;3.30;;;1.93;;
43014;SDS011;28637;50.554;7.032;2023-02-28T01:44:04;3.67;;;2.00;;
43014;SDS011;28637;50.554;7.032;2023-02-28T01:49:26;3.67;;;2.00;;
43014;SDS011;28637;50.554;7.032;2023-02-28T01:54:29;3.53;;;2.10;;
43014;SDS011;28637;50.554;7.032;2023-02-28T01:59:33;5.95;;;2.40;;
43014;SDS011;28637;50.554;7.032;2023-02-28T02:04:37;2.88;;;2.13;;
43014;SDS011;28637;50.554;7.032;2023-02-28T02:09:46;6.00;;;2.10;;
43014;SDS011;28637;50.554;7.032;2023-02-28T02:14:54;3.13;;;2.10;;
43014;SDS011;28637;50.554;7.032;2023-02-28T02:31:05;4.55;;;2.10;;
43014;SDS011;28637;50.554;7.032;2023-02-28T02:36:33;6.18;;;1.92;;
43014;SDS011;28637;50.554;7.032;2023-02-28T02:41:49;3.60;;;2.20;;
43014;SDS011;28637;50.554;7.032;2023-02-28T02:47:15;4.75;;;2.08;;
43014;SDS011;28637;50.554;7.032;2023-02-28T02:52:20;4.10;;;2.05;;
43014;SDS011;28637;50.554;7.032;2023-02-28T02:57:30;5.30;;;2.13;;
43014;SDS011;28637;50.554;7.032;2023-02-28T03:02:36;4.78;;;2.20;;
43014;SDS011;28637;50.554;7.032;2023-02-28T03:07:38;2.85;;;2.08;;
43014;SDS011;28637;50.554;7.032;2023-02-28T03:12:45;4.63;;;1.97;;
43014;SDS011;28637;50.554;7.032;2023-02-28T03:17:59;4.55;;;2.35;;
43014;SDS011;28637;50.554;7.032;2023-02-28T03:23:21;5.40;;;1.90;;
43014;SDS011;28637;50.554;7.032;2023-02-28T03:33:39;4.18;;;2.10;;
43014;SDS011;28637;50.554;7.032;2023-02-28T03:38:49;3.60;;;2.10;;
43014;SDS011;28637;50.554;7.032;2023-02-28T03:44:38;2.97;;;2.10;;
43014;SDS011;28637;50.554;7.032;2023-02-28T03:49:40;3.47;;;1.98;;
43014;SDS011;28637;50.554;7.032;2023-02-28T03:54:50;2.85;;;1.88;;
43014;SDS011;28637;50.554;7.032;2023-02-28T04:00:03;3.83;;;2.40;;
43014;SDS011;28637;50.554;7.032;2023-02-28T04:05:12;3.45;;;1.80;;
43014;SDS011;28637;50.554;7.032;2023-02-28T04:10:12;2.50;;;1.80;;
43014;SDS011;28637;50.554;7.032;2023-02-28T04:15:13;3.60;;;1.70;;
43014;SDS011;28637;50.554;7.032;2023-02-28T04:20:14;7.00;;;2.00;;
43014;SDS011;28637;50.554;7.032;2023-02-28T04:25:15;3.10;;;1.90;;
43014;SDS011;28637;50.554;7.032;2023-02-28T04:30:16;3.87;;;2.10;;
43014;SDS011;28637;50.554;7.032;2023-02-28T04:35:17;3.80;;;2.07;;
43014;SDS011;28637;50.554;7.032;2023-02-28T04:40:17;2.60;;;2.00;;
43014;SDS011;28637;50.554;7.032;2023-02-28T04:45:18;3.27;;;1.90;;
43014;SDS011;28637;50.554;7.032;2023-02-28T04:50:18;4.47;;;2.10;;
43014;SDS011;28637;50.554;7.032;2023-02-28T04:55:19;3.00;;;2.10;;
43014;SDS011;28637;50.554;7.032;2023-02-28T05:00:20;3.90;;;2.10;;
43014;SDS011;28637;50.554;7.032;2023-02-28T05:10:25;2.58;;;2.00;;
43014;SDS011;28637;50.554;7.032;2023-02-28T05:15:26;3.07;;;2.00;;
43014;SDS011;28637;50.554;7.032;2023-02-28T05:20:27;3.53;;;2.40;;
43014;SDS011;28637;50.554;7.032;2023-02-28T05:25:27;5.50;;;2.20;;
43014;SDS011;28637;50.554;7.032;2023-02-28T05:30:28;3.40;;;2.33;;
43014;SDS011;28637;50.554;7.032;2023-02-28T05:35:30;3.50;;;2.15;;
43014;SDS011;28637;50.554;7.032;2023-02-28T05:40:30;4.30;;;2.17;;
43014;SDS011;28637;50.554;7.032;2023-02-28T05:45:31;4.23;;;2.33;;
43014;SDS011;28637;50.554;7.032;2023-02-28T05:50:31;5.23;;;2.60;;
43014;SDS011;28637;50.554;7.032;2023-02-28T05:55:32;5.80;;;2.70;;
43014;SDS011;28637;50.554;7.032;2023-02-28T06:00:33;6.70;;;3.50;;
43014;SDS011;28637;50.554;7.032;2023-02-28T06:05:34;6.27;;;2.83;;
43014;SDS011;28637;50.554;7.032;2023-02-28T06:10:34;7.30;;;3.37;;
43014;SDS011;28637;50.554;7.032;2023-02-28T06:15:35;12.63;;;5.07;;
43014;SDS011;28637;50.554;7.032;2023-02-28T06:20:36;5.50;;;3.07;;
43014;SDS011;28637;50.554;7.032;2023-02-28T06:25:36;8.10;;;3.10;;
43014;SDS011;28637;50.554;7.032;2023-02-28T06:30:37;6.20;;;2.70;;
43014;SDS011;28637;50.554;7.032;2023-02-28T06:35:39;9.23;;;3.85;;
43014;SDS011;28637;50.554;7.032;2023-02-28T06:40:39;5.97;;;3.00;;
43014;SDS011;28637;50.554;7.032;2023-02-28T06:45:43;5.00;;;2.90;;
43014;SDS011;28637;50.554;7.032;2023-02-28T06:50:44;4.88;;;2.90;;
43014;SDS011;28637;50.554;7.032;2023-02-28T06:55:44;5.87;;;2.93;;
43014;SDS011;28637;50.554;7.032;2023-02-28T07:00:45;4.40;;;2.53;;
43014;SDS011;28637;50.554;7.032;2023-02-28T07:05:50;5.07;;;2.90;;
43014;SDS011;28637;50.554;7.032;2023-02-28T07:10:52;3.53;;;2.57;;
43014;SDS011;28637;50.554;7.032;2023-02-28T07:15:57;4.85;;;2.90;;
43014;SDS011;28637;50.554;7.032;2023-02-28T07:21:03;4.78;;;2.75;;
43014;SDS011;28637;50.554;7.032;2023-02-28T07:26:07;4.65;;;3.20;;
43014;SDS011;28637;50.554;7.032;2023-02-28T07:31:15;5.50;;;3.20;;
43014;SDS011;28637;50.554;7.032;2023-02-28T07:36:17;5.93;;;3.30;;
43014;SDS011;28637;50.554;7.032;2023-02-28T07:41:21;7.22;;;2.92;;
43014;SDS011;28637;50.554;7.032;2023-02-28T07:46:24;10.57;;;5.45;;
43014;SDS011;28637;50.554;7.032;2023-02-28T07:51:25;6.80;;;4.80;;
43014;SDS011;28637;50.554;7.032;2023-02-28T07:56:26;5.37;;;3.10;;
43014;SDS011;28637;50.554;7.032;2023-02-28T08:01:26;5.13;;;3.57;;
43014;SDS011;28637;50.554;7.032;2023-02-28T08:06:27;6.53;;;3.90;;
43014;SDS011;28637;50.554;7.032;2023-02-28T08:11:28;5.53;;;3.70;;
43014;SDS011;28637;50.554;7.032;2023-02-28T08:16:28;5.93;;;3.70;;
43014;SDS011;28637;50.554;7.032;2023-02-28T08:21:29;8.53;;;4.70;;
43014;SDS011;28637;50.554;7.032;2023-02-28T08:26:30;5.40;;;2.97;;
43014;SDS011;28637;50.554;7.032;2023-02-28T08:31:30;4.22;;;2.83;;
43014;SDS011;28637;50.554;7.032;2023-02-28T08:36:31;4.70;;;2.93;;
43014;SDS011;28637;50.554;7.032;2023-02-28T08:41:32;4.70;;;3.00;;
43014;SDS011;28637;50.554;7.032;2023-02-28T08:46:33;7.27;;;3.20;;
43014;SDS011;28637;50.554;7.032;2023-02-28T08:51:34;5.43;;;2.80;;
43014;SDS011;28637;50.554;7.032;2023-02-28T08:56:34;4.25;;;3.03;;
43014;SDS011;28637;50.554;7.032;2023-02-28T09:01:36;5.25;;;3.80;;
43014;SDS011;28637;50.554;7.032;2023-02-28T09:06:37;5.60;;;3.17;;
43014;SDS011;28637;50.554;7.032;2023-02-28T09:11:37;12.25;;;5.55;;
43014;SDS011;28637;50.554;7.032;2023-02-28T09:16:38;5.05;;;2.97;;
43014;SDS011;28637;50.554;7.032;2023-02-28T09:21:39;4.38;;;2.65;;
43014;SDS011;28637;50.554;7.032;2023-02-28T09:26:39;4.03;;;2.70;;
43014;SDS011;28637;50.554;7.032;2023-02-28T09:31:40;4.70;;;2.80;;
43014;SDS011;28637;50.554;7.032;2023-02-28T09:36:41;4.75;;;2.60;;
43014;SDS011;28637;50.554;7.032;2023-02-28T09:41:45;3.83;;;2.70;;
43014;SDS011;28637;50.554;7.032;2023-02-28T09:46:51;8.63;;;5.13;;
43014;SDS011;28637;50.554;7.032;2023-02-28T09:52:04;10.30;;;7.97;;
43014;SDS011;28637;50.554;7.032;2023-02-28T10:02:46;6.88;;;4.95;;
43014;SDS011;28637;50.554;7.032;2023-02-28T10:08:17;3.67;;;2.88;;
43014;SDS011;28637;50.554;7.032;2023-02-28T10:13:26;3.13;;;2.40;;
43014;SDS011;28637;50.554;7.032;2023-02-28T10:18:31;4.07;;;2.58;;
43014;SDS011;28637;50.554;7.032;2023-02-28T10:23:45;3.20;;;2.47;;
43014;SDS011;28637;50.554;7.032;2023-02-28T10:28:47;5.35;;;3.97;;
43014;SDS011;28637;50.554;7.032;2023-02-28T10:33:48;4.80;;;2.97;;
43014;SDS011;28637;50.554;7.032;2023-02-28T10:38:50;4.30;;;3.50;;
43014;SDS011;28637;50.554;7.032;2023-02-28T10:43:50;8.32;;;2.75;;
43014;SDS011;28637;50.554;7.032;2023-02-28T10:48:59;5.78;;;4.82;;
43014;SDS011;28637;50.554;7.032;2023-02-28T10:54:05;6.97;;;3.92;;
43014;SDS011;28637;50.554;7.032;2023-02-28T11:04:18;4.18;;;3.15;;
43014;SDS011;28637;50.554;7.032;2023-02-28T11:09:23;7.65;;;2.60;;
43014;SDS011;28637;50.554;7.032;2023-02-28T11:14:39;4.30;;;2.72;;
43014;SDS011;28637;50.554;7.032;2023-02-28T11:19:48;8.90;;;5.40;;
43014;SDS011;28637;50.554;7.032;2023-02-28T11:24:53;5.05;;;2.53;;
43014;SDS011;28637;50.554;7.032;2023-02-28T11:29:58;4.10;;;2.70;;
43014;SDS011;28637;50.554;7.032;2023-02-28T11:40:17;4.65;;;3.00;;
43014;SDS011;28637;50.554;7.032;2023-02-28T11:55:39;2.60;;;2.10;;
43014;SDS011;28637;50.554;7.032;2023-02-28T12:06:27;3.40;;;2.40;;
43014;SDS011;28637;50.554;7.032;2023-02-28T12:27:07;3.85;;;2.25;;
43014;SDS011;28637;50.554;7.032;2023-02-28T12:32:16;4.07;;;2.50;;
43014;SDS011;28637;50.554;7.032;2023-02-28T12:37:31;4.03;;;2.30;;
43014;SDS011;28637;50.554;7.032;2023-02-28T12:42:51;2.85;;;2.40;;
43014;SDS011;28637;50.554;7.032;2023-02-28T12:48:00;3.07;;;2.27;;
43014;SDS011;28637;50.554;7.032;2023-02-28T12:53:17;2.78;;;2.10;;
43014;SDS011;28637;50.554;7.032;2023-02-28T12:59:04;2.45;;;2.13;;
43014;SDS011;28637;50.554;7.032;2023-02-28T13:09:27;2.97;;;2.40;;
43014;SDS011;28637;50.554;7.032;2023-02-28T13:14:30;3.22;;;2.30;;
43014;SDS011;28637;50.554;7.032;2023-02-28T13:19:37;2.72;;;2.22;;
43014;SDS011;28637;50.554;7.032;2023-02-28T13:24:49;5.85;;;2.50;;
43014;SDS011;28637;50.554;7.032;2023-02-28T13:29:52;2.60;;;2.20;;
43014;SDS011;28637;50.554;7.032;2023-02-28T13:39:57;3.60;;;2.65;;
43014;SDS011;28637;50.554;7.032;2023-02-28T14:11:31;2.50;;;2.30;;
43014;SDS011;28637;50.554;7.032;2023-02-28T14:16:46;3.20;;;2.38;;
43014;SDS011;28637;50.554;7.032;2023-02-28T14:32:41;3.40;;;2.65;;
43014;SDS011;28637;50.554;7.032;2023-02-28T14:38:04;3.45;;;2.75;;
43014;SDS011;28637;50.554;7.032;2023-02-28T14:43:19;2.80;;;2.50;;
43014;SDS011;28637;50.554;7.032;2023-02-28T14:48:22;3.50;;;2.78;;
43014;SDS011;28637;50.554;7.032;2023-02-28T14:53:45;3.70;;;2.60;;
43014;SDS011;28637;50.554;7.032;2023-02-28T14:58:51;2.95;;;2.53;;
43014;SDS011;28637;50.554;7.032;2023-02-28T15:04:01;2.60;;;2.30;;
43014;SDS011;28637;50.554;7.032;2023-02-28T15:09:13;3.28;;;2.28;;
43014;SDS011;28637;50.554;7.032;2023-02-28T15:14:20;3.10;;;2.50;;
43014;SDS011;28637;50.554;7.032;2023-02-28T15:19:25;3.22;;;2.20;;
43014;SDS011;28637;50.554;7.032;2023-02-28T15:24:31;3.20;;;2.40;;
43014;SDS011;28637;50.554;7.032;2023-02-28T15:29:42;3.40;;;2.50;;
43014;SDS011;28637;50.554;7.032;2023-02-28T15:34:46;3.17;;;2.70;;
43014;SDS011;28637;50.554;7.032;2023-02-28T15:39:47;10.93;;;7.65;;
43014;SDS011;28637;50.554;7.032;2023-02-28T15:44:51;3.38;;;2.97;;
43014;SDS011;28637;50.554;7.032;2023-02-28T15:49:57;3.83;;;2.92;;
43014;SDS011;28637;50.554;7.032;2023-02-28T15:55:07;4.32;;;3.15;;
43014;SDS011;28637;50.554;7.032;2023-02-28T16:00:21;4.60;;;2.83;;
43014;SDS011;28637;50.554;7.032;2023-02-28T16:05:31;4.35;;;2.88;;
43014;SDS011;28637;50.554;7.032;2023-02-28T16:10:31;5.22;;;2.97;;
43014;SDS011;28637;50.554;7.032;2023-02-28T16:15:35;5.03;;;3.17;;
43014;SDS011;28637;50.554;7.032;2023-02-28T16:20:42;5.15;;;3.60;;
43014;SDS011;28637;50.554;7.032;2023-02-28T16:25:44;7.43;;;3.20;;
43014;SDS011;28637;50.554;7.032;2023-02-28T16:30:50;5.43;;;3.90;;
43014;SDS011;28637;50.554;7.032;2023-02-28T16:35:52;6.57;;;5.38;;
43014;SDS011;28637;50.554;7.032;2023-02-28T16:40:53;13.33;;;8.50;;
43014;SDS011;28637;50.554;7.032;2023-02-28T16:45:57;9.15;;;6.55;;
43014;SDS011;28637;50.554;7.032;2023-02-28T16:50:59;9.57;;;5.78;;
43014;SDS011;28637;50.554;7.032;2023-02-28T16:56:00;8.90;;;5.80;;
43014;SDS011;28637;50.554;7.032;2023-02-28T17:01:02;9.60;;;6.70;;
43014;SDS011;28637;50.554;7.032;2023-02-28T17:06:03;9.52;;;6.03;;
43014;SDS011;28637;50.554;7.032;2023-02-28T17:11:04;9.90;;;7.45;;
43014;SDS011;28637;50.554;7.032;2023-02-28T17:16:05;12.17;;;8.03;;
43014;SDS011;28637;50.554;7.032;2023-02-28T17:21:14;7.70;;;5.43;;
43014;SDS011;28637;50.554;7.032;2023-02-28T17:26:17;9.23;;;5.47;;
43014;SDS011;28637;50.554;7.032;2023-02-28T17:31:23;7.00;;;4.97;;
43014;SDS011;28637;50.554;7.032;2023-02-28T17:41:26;7.57;;;5.03;;
43014;SDS011;28637;50.554;7.032;2023-02-28T17:46:26;9.25;;;5.78;;
43014;SDS011;28637;50.554;7.032;2023-02-28T17:51:28;10.85;;;6.13;;
43014;SDS011;28637;50.554;7.032;2023-02-28T17:56:29;9.50;;;6.10;;
43014;SDS011;28637;50.554;7.032;2023-02-28T18:01:30;8.88;;;5.00;;
43014;SDS011;28637;50.554;7.032;2023-02-28T18:06:32;7.07;;;4.63;;
43014;SDS011;28637;50.554;7.032;2023-02-28T18:11:46;8.68;;;4.88;;
43014;SDS011;28637;50.554;7.032;2023-02-28T18:16:49;7.85;;;4.90;;
43014;SDS011;28637;50.554;7.032;2023-02-28T18:21:51;5.97;;;4.10;;
43014;SDS011;28637;50.554;7.032;2023-02-28T18:26:52;6.95;;;3.90;;
43014;SDS011;28637;50.554;7.032;2023-02-28T18:31:53;7.57;;;4.20;;
43014;SDS011;28637;50.554;7.032;2023-02-28T18:36:55;7.10;;;4.35;;
43014;SDS011;28637;50.554;7.032;2023-02-28T18:41:56;7.63;;;5.70;;
43014;SDS011;28637;50.554;7.032;2023-02-28T18:46:57;7.47;;;4.57;;
43014;SDS011;28637;50.554;7.032;2023-02-28T18:51:59;6.80;;;4.83;;
43014;SDS011;28637;50.554;7.032;2023-02-28T18:56:59;25.75;;;15.27;;
43014;SDS011;28637;50.554;7.032;2023-02-28T19:02:01;8.07;;;5.10;;
43014;SDS011;28637;50.554;7.032;2023-02-28T19:07:02;7.72;;;4.63;;
43014;SDS011;28637;50.554;7.032;2023-02-28T19:12:02;7.80;;;4.70;;
43014;SDS011;28637;50.554;7.032;2023-02-28T19:17:03;7.10;;;4.30;;
43014;SDS011;28637;50.554;7.032;2023-02-28T19:22:04;16.55;;;4.90;;
43014;SDS011;28637;50.554;7.032;2023-02-28T19:27:04;7.43;;;4.75;;
43014;SDS011;28637;50.554;7.032;2023-02-28T19:32:05;10.13;;;4.65;;
43014;SDS011;28637;50.554;7.032;2023-02-28T19:37:06;8.95;;;4.53;;
43014;SDS011;28637;50.554;7.032;2023-02-28T19:42:07;9.40;;;5.60;;
43014;SDS011;28637;50.554;7.032;2023-02-28T19:47:13;8.25;;;4.90;;
43014;SDS011;28637;50.554;7.032;2023-02-28T19:52:14;9.60;;;5.03;;
43014;SDS011;28637;50.554;7.032;2023-02-28T19:57:15;10.13;;;5.30;;
43014;SDS011;28637;50.554;7.032;2023-02-28T20:02:17;9.15;;;5.28;;
43014;SDS011;28637;50.554;7.032;2023-02-28T20:07:19;10.10;;;5.18;;
43014;SDS011;28637;50.554;7.032;2023-02-28T20:12:20;12.63;;;5.23;;
43014;SDS011;28637;50.554;7.032;2023-02-28T20:17:22;9.35;;;5.30;;
43014;SDS011;28637;50.554;7.032;2023-02-28T20:22:23;9.07;;;5.05;;
43014;SDS011;28637;50.554;7.032;2023-02-28T20:27:24;9.23;;;5.13;;
43014;SDS011;28637;50.554;7.032;2023-02-28T20:32:25;11.88;;;5.30;;
43014;SDS011;28637;50.554;7.032;2023-02-28T20:37:26;8.73;;;5.17;;
43014;SDS011;28637;50.554;7.032;2023-02-28T20:42:27;8.77;;;4.87;;
43014;SDS011;28637;50.554;7.032;2023-02-28T20:47:27;8.05;;;4.90;;
43014;SDS011;28637;50.554;7.032;2023-02-28T20:52:28;12.07;;;4.97;;
43014;SDS011;28637;50.554;7.032;2023-02-28T20:57:29;8.82;;;4.70;;
43014;SDS011;28637;50.554;7.032;2023-02-28T21:02:29;10.13;;;4.63;;
43014;SDS011;28637;50.554;7.032;2023-02-28T21:07:30;8.20;;;5.23;;
43014;SDS011;28637;50.554;7.032;2023-02-28T21:12:31;8.05;;;4.57;;
43014;SDS011;28637;50.554;7.032;2023-02-28T21:17:32;9.90;;;4.88;;
43014;SDS011;28637;50.554;7.032;2023-02-28T21:22:32;8.13;;;4.43;;
43014;SDS011;28637;50.554;7.032;2023-02-28T21:27:33;8.83;;;4.80;;
43014;SDS011;28637;50.554;7.032;2023-02-28T21:32:34;11.10;;;5.20;;
43014;SDS011;28637;50.554;7.032;2023-02-28T21:37:36;10.00;;;5.13;;
43014;SDS011;28637;50.554;7.032;2023-02-28T21:42:37;9.85;;;5.32;;
43014;SDS011;28637;50.554;7.032;2023-02-28T21:47:38;8.73;;;5.03;;
43014;SDS011;28637;50.554;7.032;2023-02-28T21:52:38;10.17;;;5.43;;
43014;SDS011;28637;50.554;7.032;2023-02-28T21:57:40;9.38;;;5.40;;
43014;SDS011;28637;50.554;7.032;2023-02-28T22:02:41;8.80;;;4.97;;
43014;SDS011;28637;50.554;7.032;2023-02-28T22:07:43;14.38;;;6.78;;
43014;SDS011;28637;50.554;7.032;2023-02-28T22:12:43;14.77;;;7.05;;
43014;SDS011;28637;50.554;7.032;2023-02-28T22:17:44;11.67;;;6.00;;
43014;SDS011;28637;50.554;7.032;2023-02-28T22:22:45;15.80;;;7.93;;
43014;SDS011;28637;50.554;7.032;2023-02-28T22:27:45;11.43;;;6.07;;
43014;SDS011;28637;50.554;7.032;2023-02-28T22:32:46;13.30;;;6.40;;
43014;SDS011;28637;50.554;7.032;2023-02-28T22:37:47;13.73;;;6.20;;
43014;SDS011;28637;50.554;7.032;2023-02-28T22:42:47;10.63;;;5.80;;
43014;SDS011;28637;50.554;7.032;2023-02-28T22:47:48;11.97;;;5.20;;
43014;SDS011;28637;50.554;7.032;2023-02-28T22:52:49;9.90;;;5.70;;
43014;SDS011;28637;50.554;7.032;2023-02-28T22:57:49;11.95;;;6.30;;
43014;SDS011;28637;50.554;7.032;2023-02-28T23:02:50;14.70;;;5.73;;
43014;SDS011;28637;50.554;7.032;2023-02-28T23:07:51;8.43;;;5.40;;
43014;SDS011;28637;50.554;7.032;2023-02-28T23:12:51;12.77;;;6.43;;
43014;SDS011;28637;50.554;7.032;2023-02-28T23:17:52;11.77;;;6.45;;
43014;SDS011;28637;50.554;7.032;2023-02-28T23:22:53;10.90;;;6.10;;
43014;SDS011;28637;50.554;7.032;2023-02-28T23:27:54;11.35;;;6.03;;
43014;SDS011;28637;50.554;7.032;2023-02-28T23:32:55;15.13;;;7.40;;
43014;SDS011;28637;50.554;7.032;2023-02-28T23:37:55;14.10;;;7.17;;
43014;SDS011;28637;50.554;7.032;2023-02-28T23:47:58;10.98;;;5.90;;
43014;SDS011;28637;50.554;7.032;2023-02-28T23:52:58;11.30;;;6.22;;
43014;SDS011;28637;50.554;7.032;2023-02-28T23:57:59;15.10;;;6.57;;
